< < Back
Terminal Aerodrome Forecast


Current Version              Previous Versions:   1  2  3  4  5  6  7  8  9  

Terminal Aerodrome Forecast

233
FTUS42 KMLB 242320
TAFDAB
TAF
KDAB 242320Z 2500/2524 10007KT P6SM VCSH FEW040 SCT250
     FM250200 18003KT P6SM SKC
     FM251500 22007KT P6SM FEW030
     FM251700 11008KT P6SM SCT030=



Latest METAR

471
SAUS80 KWBC 252000 RRD
MTRDAB
METAR KDAB 252053Z 08007KT 10SM FEW030 SCT100 SCT200 32/26 A3005 RMK AO2
SLP177 CB DSNT SE-S SW-NW T03220256 58014


USA.gov is the U.S. government's official web portal to all federal, state and local government web resources and services.